Time;durP1;ratioP1;P1;durP2;ratioP2;P2;SDS_P1;SDS_P2;PMS_P1;PMS_P2;Temp;Humidity;BMP_temperature;BMP_pressure;BME280_temperature;BME280_humidity;BME280_pressure;Samples;Min_cycle;Max_cycle;Signal;HPM_P1;HPM_P2
2021/05/09 00:06:15;;;;;;;3.37;1.85;;;13.50;99.90;;;;;;6721310;88;20185;-76
2021/05/09 00:16:15;;;;;;;4.95;1.80;;;13.30;99.90;;;;;;6720863;88;20220;-76
2021/05/09 00:26:16;;;;;;;2.92;1.90;;;13.30;99.90;;;;;;6718687;88;20201;-77
2021/05/09 00:36:16;;;;;;;3.10;1.80;;;13.30;99.90;;;;;;6722702;88;20397;-77
2021/05/09 00:46:17;;;;;;;3.55;1.80;;;13.20;99.90;;;;;;6707193;88;20206;-77
2021/05/09 00:56:19;;;;;;;4.00;1.83;;;13.10;99.90;;;;;;6704144;88;20206;-78
2021/05/09 01:06:19;;;;;;;2.67;1.65;;;13.10;99.90;;;;;;6703295;88;20206;-78
2021/05/09 01:16:20;;;;;;;3.30;1.87;;;13.10;99.90;;;;;;6699743;88;20211;-77
2021/05/09 01:26:20;;;;;;;3.08;1.67;;;12.90;99.90;;;;;;6703257;88;20735;-77
2021/05/09 01:36:21;;;;;;;2.97;1.75;;;12.90;99.90;;;;;;6703110;88;20714;-76
2021/05/09 01:46:21;;;;;;;2.60;2.00;;;13.10;99.90;;;;;;6700116;88;20606;-77
2021/05/09 01:56:22;;;;;;;2.95;1.55;;;13.20;99.90;;;;;;6702448;88;20268;-77
2021/05/09 02:06:22;;;;;;;3.28;1.40;;;13.20;99.90;;;;;;6706996;88;20229;-78
2021/05/09 02:16:23;;;;;;;3.20;1.50;;;13.20;99.90;;;;;;6707515;88;20246;-77
2021/05/09 02:26:24;;;;;;;2.95;1.45;;;13.20;99.90;;;;;;6707468;88;20186;-78
2021/05/09 02:36:24;;;;;;;2.00;1.40;;;13.00;99.90;;;;;;6702085;88;20217;-77
2021/05/09 02:46:25;;;;;;;3.47;1.40;;;13.00;99.90;;;;;;6703272;88;20331;-79
2021/05/09 02:56:25;;;;;;;2.35;1.60;;;13.00;99.90;;;;;;6708343;88;20644;-77
2021/05/09 03:06:26;;;;;;;3.58;1.80;;;12.90;99.90;;;;;;6707436;88;20310;-76
2021/05/09 03:16:27;;;;;;;4.45;1.65;;;12.60;99.90;;;;;;6707827;88;20232;-77
2021/05/09 03:26:27;;;;;;;2.75;1.62;;;12.40;99.90;;;;;;6708040;88;20202;-78
2021/05/09 03:36:28;;;;;;;2.75;1.40;;;12.50;99.90;;;;;;6721745;88;20215;-77
2021/05/09 03:46:28;;;;;;;3.42;1.77;;;12.40;99.90;;;;;;6721603;88;20679;-78
2021/05/09 03:56:29;;;;;;;3.70;1.58;;;12.30;99.90;;;;;;6722802;88;20282;-78
2021/05/09 04:06:29;;;;;;;2.30;1.40;;;12.40;99.90;;;;;;6722039;88;20301;-77
2021/05/09 04:16:30;;;;;;;2.40;1.33;;;12.50;99.90;;;;;;6723691;88;20181;-78
2021/05/09 04:26:30;;;;;;;2.62;1.40;;;12.60;99.90;;;;;;6719067;88;20206;-77
2021/05/09 04:36:31;;;;;;;3.37;2.03;;;12.70;99.90;;;;;;6721949;88;20216;-77
2021/05/09 04:46:31;;;;;;;1.98;1.30;;;12.90;99.90;;;;;;6720843;88;20204;-77
2021/05/09 04:56:32;;;;;;;2.42;1.35;;;13.10;99.90;;;;;;6721945;88;20702;-77
2021/05/09 05:06:32;;;;;;;3.00;1.30;;;13.30;99.90;;;;;;6722040;88;20182;-78
2021/05/09 05:16:33;;;;;;;2.55;1.40;;;13.60;99.90;;;;;;6721290;88;20272;-77
2021/05/09 05:36:38;;;;;;;3.15;1.20;;;14.20;99.90;;;;;;6739146;88;20212;-78
2021/05/09 05:46:39;;;;;;;2.33;1.23;;;14.40;99.90;;;;;;6737828;88;20247;-79
2021/05/09 05:56:39;;;;;;;3.00;1.40;;;14.60;99.90;;;;;;6745578;88;20795;-78
2021/05/09 06:06:40;;;;;;;2.72;1.50;;;15.00;99.90;;;;;;6754094;88;20374;-79
2021/05/09 06:16:40;;;;;;;2.45;1.10;;;15.40;99.90;;;;;;6753828;88;20202;-78
2021/05/09 06:26:41;;;;;;;4.40;1.40;;;16.10;99.90;;;;;;6755509;88;20204;-78
2021/05/09 06:36:42;;;;;;;2.25;1.30;;;16.60;99.90;;;;;;6738369;88;20201;-79
2021/05/09 06:46:42;;;;;;;1.70;1.15;;;16.70;99.90;;;;;;6740342;88;20197;-80
2021/05/09 06:56:43;;;;;;;2.10;1.10;;;17.20;99.90;;;;;;6741432;88;20209;-77
2021/05/09 07:06:44;;;;;;;2.30;1.10;;;17.50;99.90;;;;;;6741949;88;20309;-79
2021/05/09 07:16:44;;;;;;;3.85;1.60;;;17.70;99.90;;;;;;6741018;88;20179;-79
2021/05/09 07:26:47;;;;;;;2.35;1.37;;;17.90;99.90;;;;;;6740590;88;20200;-79
2021/05/09 07:36:47;;;;;;;2.65;1.20;;;18.20;99.90;;;;;;6753488;88;20250;-78
2021/05/09 07:46:48;;;;;;;2.08;1.40;;;18.40;99.90;;;;;;6747301;88;20181;-76
2021/05/09 07:56:48;;;;;;;3.40;1.20;;;18.80;99.90;;;;;;6752540;88;20615;-77
2021/05/09 08:06:49;;;;;;;3.55;1.40;;;18.90;99.90;;;;;;6754920;88;20176;-80
2021/05/09 08:16:49;;;;;;;3.83;1.40;;;19.70;99.90;;;;;;6748317;88;20322;-78
2021/05/09 08:26:50;;;;;;;3.08;1.30;;;20.00;99.90;;;;;;6759265;88;20194;-79
2021/05/09 08:36:50;;;;;;;2.55;1.58;;;20.60;99.90;;;;;;6744466;88;20201;-77
2021/05/09 08:46:52;;;;;;;3.95;1.35;;;21.20;99.90;;;;;;6746012;88;20247;-80
2021/05/09 08:56:52;;;;;;;3.25;1.70;;;21.30;99.90;;;;;;6756750;88;20160;-79
2021/05/09 09:06:53;;;;;;;4.35;1.73;;;21.40;99.90;;;;;;6755406;88;20213;-81
2021/05/09 09:17:08;;;;;;;2.92;1.55;;;22.30;99.90;;;;;;6759937;88;20192;-81
2021/05/09 09:27:08;;;;;;;2.47;1.40;;;22.60;99.20;;;;;;6751304;88;20194;-80
2021/05/09 09:37:10;;;;;;;3.23;1.60;;;22.80;99.20;;;;;;6765084;88;21025;-81
2021/05/09 09:47:10;;;;;;;2.80;1.62;;;23.20;99.00;;;;;;6771187;88;20143;-82
2021/05/09 09:57:20;;;;;;;3.20;1.70;;;24.00;98.00;;;;;;6782224;88;20218;-81
2021/05/09 10:07:21;;;;;;;3.83;1.60;;;24.10;97.30;;;;;;6783709;88;20468;-82
2021/05/09 10:17:23;;;;;;;2.60;1.40;;;24.50;96.90;;;;;;6783496;88;20782;-82
2021/05/09 10:27:35;;;;;;;4.00;1.60;;;25.00;95.70;;;;;;6784335;88;20812;-82
2021/05/09 10:47:36;;;;;;;4.43;1.60;;;25.70;94.30;;;;;;6697941;88;20155;-82
2021/05/09 10:57:46;;;;;;;2.60;1.50;;;25.60;94.00;;;;;;6711224;88;20219;-81
2021/05/09 11:07:46;;;;;;;3.25;1.52;;;26.90;92.00;;;;;;6696781;88;20520;-83
2021/05/09 11:17:47;;;;;;;1.70;1.25;;;26.00;92.40;;;;;;6711151;88;20210;-83
2021/05/09 11:37:51;;;;;;;;;;;26.40;91.50;;;;;;6737749;88;20714;-77
2021/05/09 11:47:52;;;;;;;6.47;1.90;;;26.70;91.30;;;;;;6736264;88;20183;-77
2021/05/09 11:57:52;;;;;;;3.47;1.40;;;27.50;90.50;;;;;;6736043;88;20199;-78
2021/05/09 12:07:55;;;;;;;3.17;1.60;;;27.90;87.90;;;;;;6739584;88;20195;-77
2021/05/09 12:17:57;;;;;;;2.15;1.12;;;28.40;84.30;;;;;;6758511;88;20192;-77
2021/05/09 12:28:28;;;;;;;3.45;1.42;;;28.40;76.40;;;;;;6760880;88;20673;-80
2021/05/09 12:38:34;;;;;;;3.67;1.50;;;28.50;75.50;;;;;;6752046;88;20200;-78
2021/05/09 12:48:34;;;;;;;3.40;1.40;;;29.20;75.40;;;;;;6752929;88;20271;-78
2021/05/09 12:58:54;;;;;;;4.18;1.55;;;29.40;73.00;;;;;;6753105;88;20260;-78
2021/05/09 13:08:57;;;;;;;3.10;1.40;;;30.50;69.20;;;;;;6749761;88;20187;-78
2021/05/09 13:18:58;;;;;;;3.35;1.73;;;30.30;69.70;;;;;;6752537;88;20183;-79
2021/05/09 13:28:59;;;;;;;5.10;1.37;;;31.20;65.40;;;;;;6752766;88;20783;-77
2021/05/09 13:39:00;;;;;;;;;;;31.10;65.70;;;;;;6756191;88;20206;-78
2021/05/09 13:49:01;;;;;;;2.40;1.30;;;30.60;63.90;;;;;;6761857;88;20074;-76
2021/05/09 13:59:02;;;;;;;1.55;1.20;;;30.30;64.00;;;;;;6741070;88;20216;-77
2021/05/09 14:09:04;;;;;;;5.30;1.20;;;30.20;63.70;;;;;;6748488;88;20193;-76
2021/05/09 14:19:05;;;;;;;4.75;1.30;;;29.50;64.50;;;;;;6748974;88;20477;-75
2021/05/09 14:29:05;;;;;;;3.10;1.30;;;29.90;64.30;;;;;;6753211;88;21049;-76
2021/05/09 14:39:06;;;;;;;1.85;1.15;;;31.00;64.10;;;;;;6756857;88;20197;-80
2021/05/09 14:49:10;;;;;;;1.43;1.03;;;30.10;63.70;;;;;;6754782;88;20183;-78
2021/05/09 14:59:10;;;;;;;4.90;1.20;;;29.80;63.50;;;;;;6755408;88;20491;-77
2021/05/09 15:09:11;;;;;;;1.83;1.15;;;29.60;61.70;;;;;;6760656;88;20213;-80
2021/05/09 15:19:11;;;;;;;2.78;1.20;;;29.70;61.90;;;;;;6759485;88;20711;-77
2021/05/09 15:29:32;;;;;;;3.35;1.40;;;29.50;62.60;;;;;;6758838;88;20335;-78
2021/05/09 15:39:33;;;;;;;4.62;1.42;;;29.50;62.50;;;;;;6751977;88;20205;-78
2021/05/09 15:49:34;;;;;;;4.12;1.40;;;29.10;61.60;;;;;;6754119;88;20308;-76
2021/05/09 15:59:34;;;;;;;4.57;1.30;;;28.90;61.50;;;;;;6753224;88;20184;-77
2021/05/09 16:09:35;;;;;;;6.65;1.35;;;28.60;62.40;;;;;;6737079;88;20203;-76
2021/05/09 16:19:35;;;;;;;2.45;1.25;;;28.40;62.40;;;;;;6750556;88;20187;-77
2021/05/09 16:29:36;;;;;;;4.28;1.30;;;28.30;61.90;;;;;;6756817;87;20204;-75
2021/05/09 16:39:37;;;;;;;4.28;1.15;;;28.20;61.50;;;;;;6751988;88;20189;-76
2021/05/09 16:49:38;;;;;;;6.00;2.22;;;28.20;60.70;;;;;;6743878;88;20297;-77
2021/05/09 16:59:38;;;;;;;4.60;1.33;;;27.90;60.30;;;;;;6747600;88;20228;-75
2021/05/09 17:09:41;;;;;;;3.05;0.88;;;27.70;60.90;;;;;;6746655;88;20617;-74
2021/05/09 17:19:42;;;;;;;5.03;1.87;;;27.20;60.40;;;;;;6747071;88;20261;-74
2021/05/09 17:29:42;;;;;;;2.28;1.05;;;26.90;61.40;;;;;;6743863;87;20231;-75
2021/05/09 17:39:43;;;;;;;2.83;1.00;;;26.60;61.20;;;;;;6744309;88;20210;-74
2021/05/09 17:49:43;;;;;;;2.65;1.00;;;26.40;58.00;;;;;;6747418;88;20558;-75
2021/05/09 17:59:44;;;;;;;1.67;0.90;;;26.40;54.40;;;;;;6745170;88;20717;-75
2021/05/09 18:09:46;;;;;;;2.35;1.10;;;26.20;52.40;;;;;;6747546;88;20203;-75
2021/05/09 18:20:19;;;;;;;3.80;1.02;;;25.90;53.70;;;;;;6748371;88;20250;-75
2021/05/09 18:30:19;;;;;;;4.00;1.10;;;25.60;54.40;;;;;;6745835;87;20737;-77
2021/05/09 18:40:20;;;;;;;2.80;1.02;;;25.20;56.30;;;;;;6746452;88;20254;-77
2021/05/09 18:50:21;;;;;;;3.67;0.90;;;25.00;57.90;;;;;;6756692;88;20196;-77
2021/05/09 19:00:22;;;;;;;1.90;0.80;;;24.70;59.00;;;;;;6764492;88;20232;-81
2021/05/09 19:10:22;;;;;;;4.53;0.90;;;24.60;60.20;;;;;;6677467;88;20235;-77
2021/05/09 19:20:23;;;;;;;4.57;1.02;;;24.40;61.20;;;;;;6691065;88;20355;-77
2021/05/09 19:30:26;;;;;;;3.43;1.00;;;24.20;62.20;;;;;;6664799;89;20190;-78
2021/05/09 19:40:27;;;;;;;5.07;1.10;;;24.20;62.80;;;;;;6741764;88;20517;-78
2021/05/09 19:50:27;;;;;;;3.20;0.90;;;24.10;63.40;;;;;;6754002;88;20187;-78
2021/05/09 20:00:28;;;;;;;1.83;1.05;;;24.00;64.20;;;;;;6753833;88;20324;-78
2021/05/09 20:10:29;;;;;;;2.42;1.00;;;23.80;65.00;;;;;;6753068;88;20214;-78
2021/05/09 20:20:30;;;;;;;4.55;1.10;;;23.70;65.50;;;;;;6736803;88;20641;-79
2021/05/09 20:30:31;;;;;;;7.37;1.45;;;23.50;67.20;;;;;;6735253;88;20339;-78
2021/05/09 20:40:33;;;;;;;4.40;1.15;;;23.40;67.40;;;;;;6743193;88;20195;-79
2021/05/09 20:50:33;;;;;;;7.35;1.30;;;23.20;67.90;;;;;;6741881;88;20345;-79
2021/05/09 21:00:34;;;;;;;2.40;1.12;;;23.10;68.90;;;;;;6753452;88;20253;-80
2021/05/09 21:10:34;;;;;;;2.33;1.37;;;22.90;69.70;;;;;;6757159;88;20176;-79
2021/05/09 21:20:35;;;;;;;3.47;1.20;;;22.70;70.70;;;;;;6732700;88;20283;-78
2021/05/09 21:30:35;;;;;;;3.60;1.23;;;22.40;72.70;;;;;;6734111;88;20309;-79
2021/05/09 21:40:36;;;;;;;7.05;1.15;;;22.00;74.10;;;;;;6733437;88;20237;-77
2021/05/09 21:50:36;;;;;;;6.35;1.00;;;22.40;72.30;;;;;;6731464;88;20188;-78
2021/05/09 22:00:41;;;;;;;5.32;1.25;;;23.20;69.50;;;;;;6732458;88;20242;-78
2021/05/09 22:10:42;;;;;;;2.92;1.02;;;23.30;68.80;;;;;;6737010;88;20266;-78
2021/05/09 22:20:44;;;;;;;3.42;1.17;;;23.50;68.50;;;;;;6735233;88;20661;-78
2021/05/09 22:30:45;;;;;;;3.97;1.00;;;23.40;68.60;;;;;;6735032;88;20196;-78
2021/05/09 22:40:45;;;;;;;3.78;1.20;;;23.30;68.80;;;;;;6736162;88;20695;-78
2021/05/09 22:50:46;;;;;;;4.22;1.05;;;23.10;69.40;;;;;;6735160;88;20321;-78
2021/05/09 23:00:47;;;;;;;2.80;1.10;;;23.00;69.80;;;;;;6734920;88;20291;-78
2021/05/09 23:10:47;;;;;;;2.53;1.15;;;22.80;70.20;;;;;;6737548;88;20255;-78
2021/05/09 23:20:52;;;;;;;3.90;1.25;;;22.50;71.20;;;;;;6737563;88;20242;-76
2021/05/09 23:40:56;;;;;;;3.85;1.20;;;22.30;72.70;;;;;;6737821;88;20764;-80
2021/05/09 23:50:56;;;;;;;3.28;1.50;;;22.00;74.60;;;;;;6755079;88;20284;-80
